createdAt,value
2022-08-03T00:00:56.984Z,10.70
2022-08-03T00:03:25.018Z,8.23
2022-08-03T00:06:03.808Z,8.88
2022-08-03T00:08:33.364Z,7.60
2022-08-03T00:11:08.251Z,9.20
2022-08-03T00:13:36.363Z,8.88
2022-08-03T00:16:05.549Z,7.45
2022-08-03T00:18:33.537Z,7.30
2022-08-03T00:21:01.569Z,6.22
2022-08-03T00:23:51.355Z,7.22
2022-08-03T00:26:17.905Z,4.57
2022-08-03T00:28:49.251Z,4.03
2022-08-03T00:31:27.755Z,5.82
2022-08-03T00:34:06.020Z,6.28
2022-08-03T00:36:34.948Z,4.95
2022-08-03T00:39:02.953Z,5.15
2022-08-03T00:41:33.228Z,4.53
2022-08-03T00:44:01.357Z,4.45
2022-08-03T00:46:29.321Z,4.40
2022-08-03T00:48:57.534Z,5.38
2022-08-03T00:51:26.100Z,3.85
2022-08-03T00:53:54.170Z,6.18
2022-08-03T00:56:34.561Z,3.47
2022-08-03T00:59:04.147Z,4.90
2022-08-03T01:01:32.725Z,4.40
2022-08-03T01:04:03.296Z,5.68
2022-08-03T01:06:46.845Z,5.90
2022-08-03T01:09:27.860Z,5.95
2022-08-03T01:12:15.642Z,5.10
2022-08-03T01:14:52.892Z,4.47
2022-08-03T01:17:28.012Z,3.47
2022-08-03T01:20:12.096Z,4.15
2022-08-03T01:23:01.608Z,6.10
2022-08-03T01:26:02.735Z,6.80
2022-08-03T01:29:09.660Z,8.45
2022-08-03T01:33:02.687Z,5.10
2022-08-03T01:34:42.356Z,3.83
2022-08-03T01:37:14.002Z,2.92
2022-08-03T01:39:43.764Z,5.75
2022-08-03T01:42:14.971Z,2.85
2022-08-03T01:44:50.494Z,4.05
2022-08-03T01:47:22.223Z,6.35
2022-08-03T01:49:53.142Z,4.40
2022-08-03T01:52:22.456Z,5.00
2022-08-03T01:54:53.679Z,4.18
2022-08-03T01:57:25.925Z,5.38
2022-08-03T01:59:56.653Z,6.07
2022-08-03T02:02:33.102Z,5.18
2022-08-03T02:05:10.921Z,3.95
2022-08-03T02:07:42.639Z,8.93
2022-08-03T02:10:15.094Z,7.10
2022-08-03T02:12:46.363Z,9.20
2022-08-03T02:15:17.310Z,8.07
2022-08-03T02:17:50.825Z,7.53
2022-08-03T02:20:20.123Z,15.45
2022-08-03T02:22:49.001Z,6.60
2022-08-03T02:25:17.820Z,8.38
2022-08-03T02:28:27.415Z,6.80
2022-08-03T02:30:59.622Z,7.60
2022-08-03T02:33:42.022Z,6.43
2022-08-03T02:36:15.778Z,6.80
2022-08-03T02:38:46.737Z,6.57
2022-08-03T02:41:22.451Z,4.88
2022-08-03T02:44:05.889Z,3.97
2022-08-03T02:46:41.554Z,5.38
2022-08-03T02:49:40.790Z,6.47
2022-08-03T02:52:02.779Z,5.05
2022-08-03T02:57:00.977Z,4.28
2022-08-03T02:59:33.807Z,6.97
2022-08-03T03:02:03.122Z,5.55
2022-08-03T03:04:33.148Z,4.63
2022-08-03T03:07:04.355Z,5.45
2022-08-03T03:09:41.787Z,4.18
2022-08-03T03:12:16.335Z,4.88
2022-08-03T03:14:44.651Z,5.65
2022-08-03T03:17:15.457Z,3.20
2022-08-03T03:20:05.927Z,5.32
2022-08-03T03:22:36.087Z,4.38
2022-08-03T03:25:05.094Z,3.50
2022-08-03T03:27:35.632Z,2.43
2022-08-03T03:30:05.424Z,2.90
2022-08-03T03:32:33.570Z,4.20
2022-08-03T03:35:02.138Z,4.15
2022-08-03T03:39:59.387Z,2.63
2022-08-03T03:42:27.805Z,4.22
2022-08-03T03:44:55.846Z,4.80
2022-08-03T03:47:32.861Z,5.23
2022-08-03T03:50:02.542Z,3.28
2022-08-03T03:52:33.281Z,3.63
2022-08-03T03:55:01.858Z,4.03
2022-08-03T03:57:32.074Z,3.30
2022-08-03T04:00:00.137Z,4.60
2022-08-03T04:02:28.804Z,2.47
2022-08-03T04:05:15.477Z,2.67
2022-08-03T04:08:18.703Z,2.30
2022-08-03T04:11:14.303Z,2.58
2022-08-03T04:14:09.631Z,2.97
2022-08-03T04:16:47.958Z,4.43
2022-08-03T04:19:31.163Z,4.43
2022-08-03T04:22:04.272Z,4.25
2022-08-03T04:24:36.760Z,6.47
2022-08-03T04:27:10.271Z,3.30
2022-08-03T04:29:48.171Z,6.25
2022-08-03T04:32:18.693Z,2.35
2022-08-03T04:37:48.571Z,2.88
2022-08-03T04:40:22.775Z,4.15
2022-08-03T04:42:54.830Z,7.13
2022-08-03T04:45:23.731Z,3.15
2022-08-03T04:47:53.757Z,4.40
2022-08-03T04:50:25.179Z,4.75
2022-08-03T04:52:53.197Z,4.32
2022-08-03T04:55:34.146Z,6.30
2022-08-03T04:58:04.461Z,3.13
2022-08-03T05:00:32.831Z,4.40
2022-08-03T05:03:01.042Z,4.05
2022-08-03T05:05:50.649Z,5.50
2022-08-03T05:10:59.148Z,5.85
2022-08-03T05:13:28.785Z,4.60
2022-08-03T05:15:57.003Z,5.53
2022-08-03T05:18:25.128Z,3.50
2022-08-03T05:20:55.242Z,6.13
2022-08-03T05:23:41.977Z,3.25
2022-08-03T05:26:13.998Z,2.78
2022-08-03T05:28:50.632Z,3.03
2022-08-03T05:31:20.191Z,3.58
2022-08-03T05:33:49.932Z,3.97
2022-08-03T05:36:18.008Z,2.85
2022-08-03T05:38:46.069Z,2.88
2022-08-03T05:41:22.032Z,3.70
2022-08-03T05:43:54.510Z,2.67
2022-08-03T05:46:26.045Z,2.92
2022-08-03T05:48:55.019Z,4.95
2022-08-03T05:51:23.309Z,6.28
2022-08-03T05:53:52.594Z,4.20
2022-08-03T05:56:25.521Z,5.25
2022-08-03T05:58:54.347Z,5.03
2022-08-03T06:01:23.228Z,4.30
2022-08-03T06:06:37.760Z,12.20
2022-08-03T06:09:06.560Z,6.23
2022-08-03T06:11:35.259Z,3.92
2022-08-03T06:14:05.086Z,1.85
2022-08-03T06:16:34.385Z,2.42
2022-08-03T06:19:03.014Z,3.03
2022-08-03T06:21:31.197Z,4.65
2022-08-03T06:23:59.175Z,3.78
2022-08-03T06:26:28.489Z,3.90
2022-08-03T06:28:57.048Z,3.25
2022-08-03T06:31:33.334Z,2.45
2022-08-03T06:34:34.697Z,2.42
2022-08-03T06:37:01.321Z,2.40
2022-08-03T06:39:31.534Z,2.38
2022-08-03T06:41:59.779Z,2.10
2022-08-03T06:44:27.825Z,1.50
2022-08-03T06:46:58.129Z,2.92
2022-08-03T06:49:26.477Z,2.13
2022-08-03T06:52:04.223Z,2.55
2022-08-03T06:57:04.328Z,3.83
2022-08-03T07:00:10.363Z,3.45
2022-08-03T07:02:22.159Z,1.90
2022-08-03T07:04:51.186Z,1.92
2022-08-03T07:07:21.211Z,3.23
2022-08-03T07:12:28.404Z,2.28
2022-08-03T07:15:02.909Z,1.73
2022-08-03T07:18:11.082Z,1.70
2022-08-03T07:20:40.293Z,1.60
2022-08-03T07:23:08.415Z,4.20
2022-08-03T07:25:36.784Z,4.53
2022-08-03T07:28:05.540Z,1.95
2022-08-03T07:30:33.745Z,2.45
2022-08-03T07:33:01.826Z,1.63
2022-08-03T07:35:30.882Z,4.05
2022-08-03T07:37:58.866Z,2.07
2022-08-03T07:40:42.081Z,1.85
2022-08-03T07:43:14.955Z,2.13
2022-08-03T07:45:43.091Z,1.97
2022-08-03T07:48:12.565Z,2.30
2022-08-03T07:50:43.860Z,1.83
2022-08-03T07:53:11.851Z,2.25
2022-08-03T07:55:39.962Z,2.83
2022-08-03T07:58:12.900Z,1.80
2022-08-03T08:00:40.956Z,12.27
2022-08-03T08:03:09.158Z,1.75
2022-08-03T08:05:38.398Z,2.92
2022-08-03T08:08:06.637Z,3.55
2022-08-03T08:10:34.896Z,1.73
2022-08-03T08:13:05.035Z,3.00
2022-08-03T08:15:33.405Z,2.15
2022-08-03T08:18:03.158Z,2.10
2022-08-03T08:20:37.989Z,2.03
2022-08-03T08:23:19.288Z,2.03
2022-08-03T08:25:58.124Z,2.50
2022-08-03T08:28:32.731Z,3.08
2022-08-03T08:31:02.818Z,4.07
2022-08-03T08:36:20.154Z,4.40
2022-08-03T08:38:48.544Z,1.80
2022-08-03T08:41:18.281Z,2.03
2022-08-03T08:43:46.483Z,2.15
2022-08-03T08:46:23.298Z,2.88
2022-08-03T08:48:55.652Z,2.72
2022-08-03T08:51:54.518Z,3.25
2022-08-03T08:54:23.789Z,3.75
2022-08-03T08:56:54.327Z,2.10
2022-08-03T08:59:25.021Z,3.10
2022-08-03T09:01:59.816Z,6.53
2022-08-03T09:04:30.291Z,2.95
2022-08-03T09:07:17.970Z,1.85
2022-08-03T09:10:05.321Z,2.13
2022-08-03T09:12:47.006Z,1.75
2022-08-03T09:15:28.200Z,3.20
2022-08-03T09:17:58.651Z,2.75
2022-08-03T09:20:34.017Z,2.17
2022-08-03T09:23:44.685Z,3.35
2022-08-03T09:26:00.344Z,3.00
2022-08-03T09:28:59.800Z,1.70
2022-08-03T09:31:39.027Z,2.03
2022-08-03T09:34:16.961Z,1.73
2022-08-03T09:36:51.065Z,2.88
2022-08-03T09:39:41.264Z,2.72
2022-08-03T09:42:18.751Z,4.70
2022-08-03T09:44:53.065Z,4.28
2022-08-03T09:47:32.755Z,3.70
2022-08-03T09:50:02.683Z,4.28
2022-08-03T09:52:51.889Z,4.85
2022-08-03T09:56:30.945Z,2.45
2022-08-03T09:58:11.157Z,2.15
2022-08-03T10:01:07.166Z,2.95
2022-08-03T10:04:02.956Z,7.65
2022-08-03T10:06:31.104Z,2.05
2022-08-03T10:09:15.119Z,3.88
2022-08-03T10:11:45.477Z,2.78
2022-08-03T10:14:20.476Z,2.83
2022-08-03T10:16:49.914Z,2.17
2022-08-03T10:19:19.716Z,2.53
2022-08-03T10:21:54.459Z,2.45
2022-08-03T10:24:30.609Z,2.97
2022-08-03T10:27:04.592Z,4.22
2022-08-03T10:29:41.465Z,6.50
2022-08-03T10:32:22.756Z,6.10
2022-08-03T10:34:59.843Z,5.72
2022-08-03T10:37:35.599Z,5.10
2022-08-03T10:40:04.509Z,3.63
2022-08-03T10:42:33.807Z,3.97
2022-08-03T10:45:06.538Z,3.30
2022-08-03T10:47:37.783Z,2.53
2022-08-03T10:50:06.694Z,3.38
2022-08-03T10:52:38.274Z,15.02
2022-08-03T10:55:58.155Z,8.95
2022-08-03T10:58:56.900Z,9.30
2022-08-03T11:01:59.131Z,8.48
2022-08-03T11:04:30.468Z,7.57
2022-08-03T11:07:22.241Z,5.85
2022-08-03T11:09:55.777Z,3.85
2022-08-03T11:12:34.065Z,4.20
2022-08-03T11:15:05.783Z,4.28
2022-08-03T11:17:46.162Z,2.78
2022-08-03T11:26:31.330Z,3.63
2022-08-03T11:29:29.732Z,3.90
2022-08-03T11:32:00.277Z,5.10
2022-08-03T11:34:28.463Z,4.95
2022-08-03T11:37:30.182Z,2.92
2022-08-03T11:40:02.782Z,4.97
2022-08-03T11:42:36.706Z,3.97
2022-08-03T11:45:08.763Z,5.13
2022-08-03T11:47:50.916Z,4.10
2022-08-03T11:50:20.700Z,8.88
2022-08-03T11:52:49.715Z,3.22
2022-08-03T11:55:26.779Z,2.88
2022-08-03T11:59:16.954Z,3.60
2022-08-03T12:00:51.581Z,3.50
2022-08-03T12:05:56.400Z,3.77
2022-08-03T12:08:35.039Z,4.80
2022-08-03T12:11:09.773Z,3.97
2022-08-03T12:14:05.774Z,6.10
2022-08-03T12:16:41.979Z,5.88
2022-08-03T12:19:10.296Z,12.35
2022-08-03T12:21:57.417Z,6.18
2022-08-03T12:24:30.768Z,11.02
2022-08-03T12:27:00.089Z,5.07
2022-08-03T12:29:29.150Z,6.67
2022-08-03T12:31:59.337Z,13.60
2022-08-03T12:34:50.003Z,17.42
2022-08-03T12:37:23.572Z,16.35
2022-08-03T12:40:02.107Z,14.32
2022-08-03T12:42:36.811Z,14.30
2022-08-03T12:45:27.235Z,7.78
2022-08-03T12:47:58.817Z,9.00
2022-08-03T12:50:47.463Z,28.48
2022-08-03T12:53:30.937Z,27.95
2022-08-03T12:56:06.584Z,15.40
2022-08-03T12:58:38.065Z,28.42
2022-08-03T13:01:10.448Z,12.55
2022-08-03T13:03:50.384Z,27.25
2022-08-03T13:06:27.629Z,19.55
2022-08-03T13:09:10.740Z,20.35
2022-08-03T13:11:55.745Z,15.93
2022-08-03T13:14:27.320Z,10.90
2022-08-03T13:16:55.343Z,7.70
2022-08-03T13:19:23.368Z,18.80
2022-08-03T13:22:04.234Z,12.80
2022-08-03T13:24:33.879Z,13.10
2022-08-03T13:28:01.340Z,17.17
2022-08-03T13:29:53.540Z,13.18
2022-08-03T13:32:22.507Z,13.98
2022-08-03T13:34:50.762Z,9.77
2022-08-03T13:37:18.833Z,4.88
2022-08-03T13:39:57.312Z,7.63
2022-08-03T13:42:35.461Z,10.00
2022-08-03T13:45:05.253Z,5.53
2022-08-03T13:47:33.424Z,12.18
2022-08-03T13:50:03.095Z,17.75
2022-08-03T13:52:37.308Z,16.33
2022-08-03T13:55:07.535Z,13.23
2022-08-03T13:58:04.186Z,15.23
2022-08-03T14:03:05.086Z,11.18
2022-08-03T14:05:36.500Z,32.38
2022-08-03T14:08:06.810Z,44.63
2022-08-03T14:10:42.331Z,59.05
2022-08-03T14:13:12.763Z,47.28
2022-08-03T14:15:50.857Z,41.63
2022-08-03T14:18:28.523Z,33.10
2022-08-03T14:21:07.520Z,28.38
2022-08-03T14:23:38.210Z,19.23
2022-08-03T14:26:13.358Z,17.50
2022-08-03T14:28:42.090Z,15.23
2022-08-03T14:32:09.250Z,13.68
2022-08-03T14:33:59.170Z,14.68
2022-08-03T14:36:27.210Z,16.77
2022-08-03T14:38:59.412Z,16.88
2022-08-03T14:41:30.371Z,31.60
2022-08-03T14:44:00.403Z,32.20
2022-08-03T14:46:30.300Z,27.98
2022-08-03T14:50:34.053Z,19.92
2022-08-03T14:51:53.494Z,19.83
2022-08-03T14:54:24.569Z,30.27
2022-08-03T14:56:53.132Z,26.38
2022-08-03T14:59:21.227Z,27.92
2022-08-03T15:02:03.240Z,24.98
2022-08-03T15:07:21.230Z,18.92
2022-08-03T15:09:49.711Z,17.33
2022-08-03T15:12:19.461Z,15.30
2022-08-03T15:14:47.684Z,16.92
2022-08-03T15:17:15.704Z,15.88
2022-08-03T15:20:04.060Z,19.83
2022-08-03T15:22:34.784Z,19.02
2022-08-03T15:26:27.885Z,14.32
2022-08-03T15:30:36.725Z,10.50
2022-08-03T15:33:15.145Z,12.32
2022-08-03T15:35:43.312Z,9.55
2022-08-03T15:38:11.331Z,9.52
2022-08-03T15:40:55.366Z,9.85
2022-08-03T15:43:24.745Z,10.65
2022-08-03T15:48:42.574Z,10.80
2022-08-03T15:51:12.065Z,11.70
2022-08-03T15:53:40.346Z,7.93
2022-08-03T15:56:14.333Z,9.07
2022-08-03T15:59:09.725Z,7.60
2022-08-03T16:01:34.470Z,13.02
2022-08-03T16:04:04.488Z,12.30
2022-08-03T16:06:35.998Z,11.13
2022-08-03T16:09:23.521Z,11.40
2022-08-03T16:11:58.189Z,14.95
2022-08-03T16:14:32.161Z,12.88
2022-08-03T16:17:01.846Z,7.10
2022-08-03T16:19:31.122Z,7.15
2022-08-03T16:21:59.295Z,17.63
2022-08-03T16:24:28.426Z,9.63
2022-08-03T16:26:58.462Z,16.13
2022-08-03T16:29:29.333Z,13.13
2022-08-03T16:31:57.504Z,56.83
2022-08-03T16:34:26.012Z,45.92
2022-08-03T16:36:55.374Z,76.20
2022-08-03T16:39:23.915Z,95.13
2022-08-03T16:42:01.284Z,97.72
2022-08-03T16:44:31.939Z,86.10
2022-08-03T16:47:00.732Z,87.30
2022-08-03T16:49:54.564Z,83.20
2022-08-03T16:52:17.976Z,72.55
2022-08-03T16:54:52.829Z,69.78
2022-08-03T16:57:29.915Z,68.93
2022-08-03T17:00:33.009Z,61.22
2022-08-03T17:03:04.318Z,55.40
2022-08-03T17:05:47.006Z,42.08
2022-08-03T17:08:18.912Z,28.50
2022-08-03T17:10:55.446Z,20.85
2022-08-03T17:13:39.417Z,20.92
2022-08-03T17:16:16.210Z,21.55
2022-08-03T17:19:06.446Z,21.90
2022-08-03T17:21:40.113Z,25.90
2022-08-03T17:24:20.961Z,22.35
2022-08-03T17:26:51.959Z,23.70
2022-08-03T17:29:23.123Z,18.23
2022-08-03T17:31:55.765Z,19.60
2022-08-03T17:34:26.534Z,17.38
2022-08-03T17:37:04.247Z,16.58
2022-08-03T17:42:30.569Z,13.05
2022-08-03T17:45:01.734Z,15.07
2022-08-03T17:47:41.972Z,16.15
2022-08-03T17:50:24.047Z,12.63
2022-08-03T17:53:14.424Z,15.57
2022-08-03T18:03:05.964Z,13.20
2022-08-03T18:06:10.746Z,11.82
2022-08-03T18:08:32.293Z,12.70
2022-08-03T18:11:14.638Z,13.00
2022-08-03T18:13:57.780Z,9.77
2022-08-03T18:16:35.370Z,9.00
2022-08-03T18:19:13.764Z,9.65
2022-08-03T18:22:03.001Z,8.35
2022-08-03T18:24:32.788Z,8.13
2022-08-03T18:27:03.267Z,10.20
2022-08-03T18:29:31.792Z,17.70
2022-08-03T18:32:07.723Z,7.53
2022-08-03T18:34:53.565Z,10.18
2022-08-03T18:37:27.067Z,16.90
2022-08-03T18:39:58.739Z,13.45
2022-08-03T18:42:28.057Z,10.10
2022-08-03T18:45:14.912Z,13.98
2022-08-03T18:48:23.036Z,8.32
2022-08-03T18:51:06.830Z,10.13
2022-08-03T18:54:03.972Z,12.60
2022-08-03T18:56:45.314Z,9.35
2022-08-03T18:59:30.004Z,8.90
2022-08-03T19:02:09.118Z,8.95
2022-08-03T19:04:48.651Z,8.80
2022-08-03T19:07:26.906Z,9.98
2022-08-03T19:12:59.043Z,10.25
2022-08-03T19:15:36.516Z,9.88
2022-08-03T19:18:10.795Z,11.18
2022-08-03T19:20:39.385Z,10.52
2022-08-03T19:23:09.018Z,9.65
2022-08-03T19:25:41.463Z,10.85
2022-08-03T19:28:10.083Z,10.77
2022-08-03T19:30:40.695Z,16.25
2022-08-03T19:33:17.047Z,16.77
2022-08-03T19:35:55.154Z,17.80
2022-08-03T19:38:28.896Z,16.35
2022-08-03T19:41:04.718Z,11.70
2022-08-03T19:43:57.915Z,13.80
2022-08-03T19:46:31.087Z,11.27
2022-08-03T19:49:15.094Z,11.18
2022-08-03T19:54:53.357Z,8.93
2022-08-03T19:57:25.444Z,12.77
2022-08-03T19:59:59.369Z,18.42
2022-08-03T20:02:34.293Z,15.65
2022-08-03T20:05:02.397Z,14.65
2022-08-03T20:07:34.663Z,10.18
2022-08-03T20:10:05.925Z,8.77
2022-08-03T20:12:39.137Z,9.02
2022-08-03T20:15:11.930Z,10.07
2022-08-03T20:17:55.322Z,8.35
2022-08-03T20:20:38.975Z,11.90
2022-08-03T20:23:18.826Z,9.10
2022-08-03T20:25:57.292Z,12.17
2022-08-03T20:28:36.057Z,9.52
2022-08-03T20:31:25.127Z,12.20
2022-08-03T20:34:02.434Z,14.20
2022-08-03T20:36:30.737Z,11.98
2022-08-03T20:38:59.559Z,12.80
2022-08-03T20:41:27.913Z,20.57
2022-08-03T20:43:59.998Z,19.75
2022-08-03T20:46:32.162Z,15.60
2022-08-03T20:49:06.538Z,11.25
2022-08-03T20:51:50.278Z,10.05
2022-08-03T20:54:29.235Z,11.50
2022-08-03T20:57:04.226Z,11.25
2022-08-03T20:59:50.167Z,11.30
2022-08-03T21:02:29.718Z,9.55
2022-08-03T21:05:08.611Z,9.48
2022-08-03T21:08:05.392Z,10.98
2022-08-03T21:10:42.266Z,8.60
2022-08-03T21:13:01.457Z,11.23
2022-08-03T21:13:03.089Z,11.55
2022-08-03T21:13:04.438Z,13.15
2022-08-03T21:13:24.749Z,8.55
2022-08-03T21:16:11.386Z,9.95
2022-08-03T21:18:52.640Z,10.93
2022-08-03T21:21:23.952Z,8.18
2022-08-03T21:23:54.455Z,11.40
2022-08-03T21:26:25.172Z,11.60
2022-08-03T21:28:55.746Z,12.55
2022-08-03T21:31:27.083Z,10.23
2022-08-03T21:34:06.115Z,9.25
2022-08-03T21:36:38.323Z,9.20
2022-08-03T21:39:09.176Z,10.82
2022-08-03T21:41:42.989Z,10.27
2022-08-03T21:44:11.211Z,10.75
2022-08-03T21:46:41.849Z,6.80
2022-08-03T21:50:06.894Z,8.85
2022-08-03T21:52:06.627Z,8.85
2022-08-03T21:54:39.205Z,8.35
2022-08-03T21:57:18.748Z,9.15
2022-08-03T22:02:31.347Z,11.40
2022-08-03T22:05:00.416Z,11.77
2022-08-03T22:07:34.895Z,8.77
2022-08-03T22:10:09.854Z,9.90
2022-08-03T22:12:38.739Z,10.75
2022-08-03T22:15:10.269Z,10.05
2022-08-03T22:17:55.757Z,12.43
2022-08-03T22:20:25.638Z,9.90
2022-08-03T22:22:57.345Z,10.88
2022-08-03T22:25:31.221Z,10.85
2022-08-03T22:28:02.772Z,11.00
2022-08-03T22:30:34.279Z,12.05
2022-08-03T22:33:04.498Z,12.10
2022-08-03T22:35:47.416Z,12.90
2022-08-03T22:38:16.663Z,11.15
2022-08-03T22:40:45.315Z,13.05
2022-08-03T22:43:13.346Z,12.55
2022-08-03T22:46:10.208Z,10.45
2022-08-03T22:48:40.951Z,11.00
2022-08-03T22:51:11.218Z,14.07
2022-08-03T22:53:40.719Z,14.18
2022-08-03T22:56:09.442Z,14.32
2022-08-03T22:58:38.432Z,12.73
2022-08-03T23:01:12.202Z,13.03
2022-08-03T23:04:00.129Z,11.88
2022-08-03T23:06:36.444Z,10.07
2022-08-03T23:09:13.321Z,10.48
2022-08-03T23:11:45.619Z,10.85
2022-08-03T23:14:17.446Z,12.00
2022-08-03T23:16:46.881Z,11.38
2022-08-03T23:19:25.005Z,11.38
2022-08-03T23:22:02.317Z,13.07
2022-08-03T23:24:38.729Z,11.77
2022-08-03T23:27:08.982Z,14.93
2022-08-03T23:29:38.839Z,12.38
2022-08-03T23:32:07.986Z,13.77
2022-08-03T23:34:59.797Z,16.08
2022-08-03T23:37:27.960Z,21.40
2022-08-03T23:39:58.433Z,29.05
2022-08-03T23:42:27.045Z,15.18
2022-08-03T23:44:59.463Z,13.90
2022-08-03T23:47:46.264Z,12.50
2022-08-03T23:50:16.000Z,12.65
2022-08-03T23:53:07.912Z,22.40
2022-08-03T23:55:50.856Z,48.47
2022-08-03T23:58:22.377Z,28.17
